Terminal Aerodrome Forecast
Issued by NWS Grand Forks, ND

Home | Current Version | Previous Version | Graphics & Text | Print | Product List | Glossary On
Versions: 1 2 3 4 5 6 7 8 9 10 11 12 13 14 15 16 17 18 19 20 21
000
FTUS43 KFGF 302300
TAFFAR
TAF
KFAR 302335Z 0100/0124 18017G23KT P6SM SCT100
     FM010300 24012KT P6SM -SHRA OVC050
     FM010400 30013KT P6SM -SHRA OVC050
     FM010900 27006KT P6SM SCT100
     FM011600 27012KT P6SM SKC=

USA.gov is the U.S. government's official web portal to all federal, state and local government web resources and services.